createdAt,value
2019-04-20T00:00:14.677Z,1.1
2019-04-20T00:01:04.967Z,1.1
2019-04-20T00:02:25.622Z,1.1
2019-04-20T00:03:03.775Z,1.1
2019-04-20T00:04:03.613Z,1.1
2019-04-20T00:05:03.734Z,1.1
2019-04-20T00:06:03.820Z,1.1
2019-04-20T00:07:07.770Z,1.1
2019-04-20T00:08:38.133Z,1.1
2019-04-20T00:09:41.438Z,0
2019-04-20T00:10:30.216Z,0
2019-04-20T00:12:10.663Z,0
2019-04-20T00:13:28.507Z,0
2019-04-20T00:14:08.889Z,0
2019-04-20T00:14:37.442Z,0
2019-04-20T00:15:04.999Z,0
2019-04-20T00:16:04.495Z,0
2019-04-20T00:17:03.529Z,0
2019-04-20T00:18:15.222Z,0
2019-04-20T00:19:22.341Z,0
2019-04-20T00:20:37.451Z,0
2019-04-20T00:21:20.990Z,0
2019-04-20T00:22:21.149Z,0
2019-04-20T00:23:04.048Z,0
2019-04-20T00:24:38.817Z,0
2019-04-20T00:25:54.230Z,0
2019-04-20T00:28:59.998Z,0
2019-04-20T00:29:49.240Z,0
2019-04-20T00:31:18.724Z,0
2019-04-20T00:31:59.055Z,0
2019-04-20T00:32:41.109Z,0
2019-04-20T00:33:39.435Z,0
2019-04-20T00:34:24.319Z,0
2019-04-20T00:34:45.065Z,0
2019-04-20T00:35:04.437Z,0
2019-04-20T00:36:03.635Z,0
2019-04-20T00:37:08.791Z,0
2019-04-20T00:38:03.697Z,0
2019-04-20T00:39:21.531Z,0
2019-04-20T00:40:03.943Z,0
2019-04-20T00:41:23.896Z,0
2019-04-20T00:42:32.745Z,0
2019-04-20T00:43:04.976Z,0
2019-04-20T00:44:44.577Z,0
2019-04-20T00:45:53.541Z,0
2019-04-20T00:48:33.581Z,0
2019-04-20T00:49:25.218Z,0
2019-04-20T00:52:18.425Z,0
2019-04-20T00:53:13.203Z,0
2019-04-20T00:53:43.112Z,0
2019-04-20T00:53:57.551Z,0
2019-04-20T00:54:07.476Z,0
2019-04-20T00:55:04.496Z,1.1
2019-04-20T00:56:03.699Z,0
2019-04-20T00:58:05.482Z,0
2019-04-20T00:59:23.048Z,1.1
2019-04-20T01:00:59.705Z,0
2019-04-20T01:02:50.376Z,0
2019-04-20T01:04:05.400Z,0
2019-04-20T01:05:03.829Z,0
2019-04-20T01:06:53.319Z,1.1
2019-04-20T01:07:41.890Z,0
2019-04-20T01:08:03.587Z,0
2019-04-20T01:08:13.039Z,0
2019-04-20T01:09:03.757Z,1.1
2019-04-20T01:10:07.248Z,0
2019-04-20T01:11:04.559Z,1.1
2019-04-20T01:12:40.574Z,1.1
2019-04-20T01:13:28.417Z,1.1
2019-04-20T01:14:43.266Z,0
2019-04-20T01:16:05.192Z,0
2019-04-20T01:17:11.135Z,0
2019-04-20T01:17:13.751Z,0
2019-04-20T01:18:03.580Z,0
2019-04-20T01:19:03.292Z,0
2019-04-20T01:20:03.162Z,0
2019-04-20T01:21:33.480Z,0
2019-04-20T01:22:40.056Z,0
2019-04-20T01:23:47.918Z,0
2019-04-20T01:24:40.331Z,0
2019-04-20T01:25:45.714Z,0
2019-04-20T01:26:25.767Z,0
2019-04-20T01:28:27.335Z,0
2019-04-20T01:29:39.147Z,1.1
2019-04-20T01:30:05.722Z,0
2019-04-20T01:31:18.322Z,0
2019-04-20T01:32:29.600Z,0
2019-04-20T01:33:39.958Z,0
2019-04-20T01:34:26.408Z,0
2019-04-20T01:35:53.011Z,0
2019-04-20T01:37:00.481Z,0
2019-04-20T01:37:52.668Z,0
2019-04-20T01:38:51.152Z,0
2019-04-20T01:39:34.199Z,0
2019-04-20T01:39:59.156Z,0
2019-04-20T01:40:14.778Z,1.1
2019-04-20T01:41:03.686Z,0
2019-04-20T01:42:05.024Z,0
2019-04-20T01:43:04.082Z,0
2019-04-20T01:44:05.365Z,0
2019-04-20T01:45:42.134Z,0
2019-04-20T01:46:30.384Z,0
2019-04-20T01:47:15.082Z,1.1
2019-04-20T01:48:28.606Z,1.1
2019-04-20T01:49:36.848Z,0
2019-04-20T01:50:52.275Z,0
2019-04-20T01:52:15.957Z,0
2019-04-20T01:55:04.583Z,0
2019-04-20T01:56:07.017Z,1.1
2019-04-20T01:56:46.867Z,0
2019-04-20T01:57:25.503Z,0
2019-04-20T02:00:09.059Z,0
2019-04-20T02:00:20.990Z,0
2019-04-20T02:00:47.298Z,0
2019-04-20T02:01:41.140Z,0
2019-04-20T02:02:27.778Z,0
2019-04-20T02:03:13.172Z,0
2019-04-20T02:04:39.335Z,0
2019-04-20T02:05:38.954Z,0
2019-04-20T02:06:28.614Z,0
2019-04-20T02:07:13.748Z,0
2019-04-20T02:08:32.352Z,0
2019-04-20T02:09:33.957Z,0
2019-04-20T02:10:30.842Z,0
2019-04-20T02:11:38.142Z,0
2019-04-20T02:12:39.476Z,0
2019-04-20T02:13:11.407Z,0
2019-04-20T02:14:37.606Z,0
2019-04-20T02:15:52.663Z,0
2019-04-20T02:16:54.535Z,0
2019-04-20T02:18:26.837Z,0
2019-04-20T02:19:57.061Z,0
2019-04-20T02:20:42.696Z,0
2019-04-20T02:21:58.760Z,0
2019-04-20T02:22:54.894Z,0
2019-04-20T02:23:30.397Z,0
2019-04-20T02:24:04.589Z,0
2019-04-20T02:24:18.278Z,0
2019-04-20T02:25:04.156Z,0
2019-04-20T02:26:03.315Z,0
2019-04-20T02:27:04.464Z,0
2019-04-20T02:30:37.896Z,0
2019-04-20T02:32:35.736Z,0
2019-04-20T02:34:14.826Z,0
2019-04-20T02:35:07.020Z,0
2019-04-20T02:35:34.203Z,0
2019-04-20T02:36:10.088Z,0
2019-04-20T02:38:21.382Z,0
2019-04-20T02:40:46.170Z,0
2019-04-20T02:41:09.282Z,0
2019-04-20T02:42:33.734Z,0
2019-04-20T02:42:44.412Z,0
2019-04-20T02:45:08.401Z,0
2019-04-20T02:46:14.568Z,0
2019-04-20T02:48:07.486Z,0
2019-04-20T02:50:18.825Z,0
2019-04-20T02:55:07.502Z,0
2019-04-20T02:56:10.805Z,0
2019-04-20T02:56:56.787Z,0
2019-04-20T02:58:30.958Z,0
2019-04-20T02:58:30.961Z,0
2019-04-20T03:00:05.137Z,0
2019-04-20T03:00:37.840Z,0
2019-04-20T03:01:19.958Z,0
2019-04-20T03:01:40.584Z,0
2019-04-20T03:02:14.592Z,0
2019-04-20T03:02:52.726Z,0
2019-04-20T03:03:30.592Z,0
2019-04-20T03:04:01.090Z,0
2019-04-20T03:05:12.061Z,0
2019-04-20T03:06:35.984Z,0
2019-04-20T03:07:33.852Z,0
2019-04-20T03:09:02.268Z,0
2019-04-20T03:10:10.565Z,0
2019-04-20T03:11:39.368Z,0
2019-04-20T03:12:42.575Z,0
2019-04-20T03:13:35.546Z,0
2019-04-20T03:14:30.134Z,0
2019-04-20T03:15:13.552Z,0
2019-04-20T03:16:16.183Z,0
2019-04-20T03:17:32.484Z,0
2019-04-20T03:18:13.401Z,0
2019-04-20T03:18:39.508Z,0
2019-04-20T03:19:58.131Z,0
2019-04-20T03:22:28.609Z,0
2019-04-20T03:24:26.429Z,0
2019-04-20T03:24:58.706Z,0
2019-04-20T03:27:23.517Z,0
2019-04-20T03:28:13.757Z,0
2019-04-20T03:29:00.963Z,0
2019-04-20T03:30:14.512Z,0
2019-04-20T03:34:54.722Z,0
2019-04-20T03:35:32.778Z,0
2019-04-20T03:36:33.371Z,0
2019-04-20T03:37:06.686Z,0
2019-04-20T03:40:00.946Z,0
2019-04-20T03:40:58.196Z,0
2019-04-20T03:41:32.922Z,0
2019-04-20T03:41:54.968Z,0
2019-04-20T03:42:14.302Z,0
2019-04-20T03:43:05.322Z,0
2019-04-20T03:44:35.764Z,0
2019-04-20T03:45:28.931Z,0
2019-04-20T03:46:51.907Z,0
2019-04-20T03:48:12.042Z,0
2019-04-20T03:49:54.462Z,0
2019-04-20T03:51:23.430Z,0
2019-04-20T03:52:27.304Z,0
2019-04-20T03:53:34.197Z,0
2019-04-20T03:54:24.229Z,0
2019-04-20T03:54:43.277Z,0
2019-04-20T03:55:56.227Z,0
2019-04-20T03:58:23.622Z,0
2019-04-20T03:59:48.323Z,0
2019-04-20T04:01:26.922Z,0
2019-04-20T04:03:07.531Z,0
2019-04-20T04:04:14.758Z,0
2019-04-20T04:05:08.362Z,0
2019-04-20T04:05:13.262Z,0
2019-04-20T04:05:50.420Z,0
2019-04-20T04:06:42.000Z,0
2019-04-20T04:07:00.041Z,0
2019-04-20T04:08:12.096Z,0
2019-04-20T04:09:16.000Z,0
2019-04-20T04:10:30.079Z,0
2019-04-20T04:11:54.537Z,0
2019-04-20T04:12:28.730Z,0
2019-04-20T04:12:47.829Z,0
2019-04-20T04:13:03.383Z,0
2019-04-20T04:14:05.328Z,0
2019-04-20T04:15:04.499Z,0
2019-04-20T04:16:34.240Z,0
2019-04-20T04:17:26.838Z,0
2019-04-20T04:18:47.275Z,0
2019-04-20T04:19:41.640Z,0
2019-04-20T04:20:34.395Z,0
2019-04-20T04:22:24.691Z,0
2019-04-20T04:24:52.564Z,0
2019-04-20T04:25:34.080Z,0
2019-04-20T04:26:38.789Z,0
2019-04-20T04:28:10.454Z,0
2019-04-20T04:28:57.280Z,0
2019-04-20T04:31:07.736Z,0
2019-04-20T04:32:11.832Z,0
2019-04-20T04:34:07.058Z,0
2019-04-20T04:34:57.892Z,0
2019-04-20T04:35:13.644Z,0
2019-04-20T04:35:47.610Z,0
2019-04-20T04:36:53.526Z,0
2019-04-20T04:37:53.222Z,0
2019-04-20T04:41:08.017Z,0
2019-04-20T04:41:18.010Z,0
2019-04-20T04:44:23.494Z,0
2019-04-20T04:44:46.354Z,0
2019-04-20T04:45:11.000Z,0
2019-04-20T04:45:27.141Z,0
2019-04-20T04:46:04.271Z,0
2019-04-20T04:47:18.190Z,0
2019-04-20T04:48:45.671Z,0
2019-04-20T04:49:49.904Z,0
2019-04-20T04:50:32.938Z,0
2019-04-20T04:52:05.313Z,0
2019-04-20T04:53:04.414Z,0
2019-04-20T04:54:24.564Z,0
2019-04-20T04:55:10.720Z,0
2019-04-20T04:56:10.832Z,0
2019-04-20T04:56:28.963Z,0
2019-04-20T04:57:05.231Z,0
2019-04-20T04:58:04.669Z,0
2019-04-20T04:59:04.464Z,1.1
2019-04-20T05:00:03.947Z,0
2019-04-20T05:01:34.272Z,0
2019-04-20T05:02:03.679Z,1.1
2019-04-20T05:06:21.842Z,0
2019-04-20T05:07:07.132Z,0
2019-04-20T05:07:55.460Z,0
2019-04-20T05:08:36.499Z,0
2019-04-20T05:09:02.274Z,0
2019-04-20T05:09:23.701Z,0
2019-04-20T05:10:03.849Z,0
2019-04-20T05:11:04.958Z,0
2019-04-20T05:12:35.332Z,0
2019-04-20T05:13:05.255Z,0
2019-04-20T05:15:03.687Z,0
2019-04-20T05:16:37.934Z,0
2019-04-20T05:18:01.420Z,0
2019-04-20T05:18:49.884Z,0
2019-04-20T05:20:33.681Z,0
2019-04-20T05:22:03.804Z,0
2019-04-20T05:23:20.355Z,0
2019-04-20T05:24:11.025Z,0
2019-04-20T05:24:38.088Z,0
2019-04-20T05:27:06.978Z,0
2019-04-20T05:28:00.505Z,0
2019-04-20T05:28:45.707Z,0
2019-04-20T05:29:19.292Z,0
2019-04-20T05:29:39.085Z,0
2019-04-20T05:30:04.001Z,0
2019-04-20T05:31:18.456Z,0
2019-04-20T05:33:04.534Z,0
2019-04-20T05:34:57.803Z,0
2019-04-20T05:36:17.286Z,0
2019-04-20T05:36:54.039Z,0
2019-04-20T05:38:31.042Z,0
2019-04-20T05:39:26.424Z,0
2019-04-20T05:40:32.395Z,0
2019-04-20T05:41:16.465Z,0
2019-04-20T05:43:05.624Z,0
2019-04-20T05:44:12.262Z,0
2019-04-20T05:46:09.199Z,0
2019-04-20T05:47:10.653Z,0
2019-04-20T05:48:24.621Z,0
2019-04-20T05:49:53.578Z,0
2019-04-20T05:51:07.113Z,0
2019-04-20T05:52:41.850Z,0
2019-04-20T05:54:38.659Z,0
2019-04-20T05:55:24.884Z,0
2019-04-20T05:56:02.373Z,0
2019-04-20T05:57:34.746Z,0
2019-04-20T06:00:33.293Z,0
2019-04-20T06:01:31.626Z,0
2019-04-20T06:02:15.509Z,0
2019-04-20T06:03:20.144Z,0
2019-04-20T06:04:31.275Z,0
2019-04-20T06:05:34.500Z,0
2019-04-20T06:08:04.940Z,0
2019-04-20T06:11:07.787Z,1.1
2019-04-20T06:13:21.869Z,1.1
2019-04-20T06:14:02.284Z,2.5
2019-04-20T06:14:15.112Z,1.1
2019-04-20T06:15:23.276Z,1.1
2019-04-20T06:17:31.217Z,2.5
2019-04-20T06:18:16.172Z,1.1
2019-04-20T06:19:06.225Z,0
2019-04-20T06:20:19.210Z,1.1
2019-04-20T06:21:41.001Z,1.1
2019-04-20T06:22:40.589Z,2.5
2019-04-20T06:25:43.638Z,1.1
2019-04-20T06:26:53.284Z,1.1
2019-04-20T06:27:44.722Z,2.5
2019-04-20T06:28:29.563Z,2.5
2019-04-20T06:29:13.577Z,0
2019-04-20T06:30:55.853Z,0
2019-04-20T06:32:10.404Z,2.5
2019-04-20T06:33:30.450Z,1.1
2019-04-20T06:35:01.259Z,2.5
2019-04-20T06:37:05.677Z,2.5
2019-04-20T06:37:28.904Z,1.1
2019-04-20T06:39:30.713Z,1.1
2019-04-20T06:40:53.808Z,2.5
2019-04-20T06:42:17.440Z,2.5
2019-04-20T06:42:47.958Z,2.5
2019-04-20T06:44:00.421Z,2.5
2019-04-20T06:46:42.027Z,1.1
2019-04-20T06:47:56.931Z,2.5
2019-04-20T06:49:16.647Z,2.5
2019-04-20T06:50:28.682Z,2.5
2019-04-20T06:51:07.079Z,3.6
2019-04-20T06:52:19.923Z,3.6
2019-04-20T06:53:31.735Z,2.5
2019-04-20T06:54:06.868Z,3.6
2019-04-20T06:55:04.992Z,2.5
2019-04-20T06:58:57.037Z,3.6
2019-04-20T06:59:37.421Z,2.5
2019-04-20T07:00:17.867Z,7.2
2019-04-20T07:02:02.663Z,5
2019-04-20T07:02:16.558Z,3.6
2019-04-20T07:05:05.160Z,2.5
2019-04-20T07:06:55.857Z,3.6
2019-04-20T07:08:08.070Z,3.6
2019-04-20T07:09:39.498Z,2.5
2019-04-20T07:11:18.189Z,3.6
2019-04-20T07:11:18.190Z,5
2019-04-20T07:12:27.020Z,3.6
2019-04-20T07:12:59.690Z,2.5
2019-04-20T07:13:46.726Z,2.5
2019-04-20T07:14:19.261Z,2.5
2019-04-20T07:15:16.150Z,5
2019-04-20T07:19:18.464Z,3.6
2019-04-20T07:20:09.725Z,3.6
2019-04-20T07:20:58.903Z,3.6
2019-04-20T07:22:59.831Z,6.1
2019-04-20T07:24:16.879Z,3.6
2019-04-20T07:24:30.402Z,3.6
2019-04-20T07:26:48.999Z,2.5
2019-04-20T07:28:38.015Z,3.6
2019-04-20T07:30:21.032Z,2.5
2019-04-20T07:30:55.039Z,1.1
2019-04-20T07:32:12.933Z,3.6
2019-04-20T07:33:03.490Z,2.5
2019-04-20T07:34:20.191Z,2.5
2019-04-20T07:36:32.097Z,3.6
2019-04-20T07:39:13.089Z,5
2019-04-20T07:40:35.343Z,3.6
2019-04-20T07:41:05.551Z,3.6
2019-04-20T07:43:38.287Z,1.1
2019-04-20T07:44:54.661Z,3.6
2019-04-20T07:45:06.945Z,2.5
2019-04-20T07:47:34.277Z,2.5
2019-04-20T07:48:29.116Z,2.5
2019-04-20T07:49:07.160Z,2.5
2019-04-20T07:49:49.478Z,3.6
2019-04-20T07:50:57.870Z,3.6
2019-04-20T07:51:26.412Z,3.6
2019-04-20T07:51:47.677Z,3.6
2019-04-20T07:52:04.313Z,3.6
2019-04-20T07:55:50.404Z,5
2019-04-20T07:57:14.206Z,5
2019-04-20T07:57:33.925Z,5
2019-04-20T07:58:01.225Z,6.1
2019-04-20T07:58:35.630Z,6.1
2019-04-20T07:59:17.475Z,5
2019-04-20T08:01:21.060Z,5
2019-04-20T08:02:48.589Z,8.6
2019-04-20T08:03:32.907Z,8.6
2019-04-20T08:04:16.948Z,8.6
2019-04-20T08:05:14.814Z,8.6
2019-04-20T08:05:46.333Z,8.6
2019-04-20T08:06:17.883Z,8.6
2019-04-20T08:06:59.045Z,8.6
2019-04-20T08:07:46.197Z,8.6
2019-04-20T08:09:51.220Z,8.6
2019-04-20T08:10:12.101Z,8.6
2019-04-20T08:12:01.317Z,7.2
2019-04-20T08:14:17.897Z,6.1
2019-04-20T08:15:56.746Z,5
2019-04-20T08:20:15.729Z,6.1
2019-04-20T08:22:33.230Z,6.1
2019-04-20T08:23:04.507Z,5
2019-04-20T08:24:27.511Z,9.7
2019-04-20T08:24:51.745Z,5
2019-04-20T08:25:56.421Z,5
2019-04-20T08:26:20.091Z,5
2019-04-20T08:27:00.052Z,5
2019-04-20T08:27:21.012Z,7.2
2019-04-20T08:29:00.120Z,3.6
2019-04-20T08:30:51.111Z,3.6
2019-04-20T08:31:39.707Z,3.6
2019-04-20T08:32:50.462Z,5
2019-04-20T08:34:11.491Z,8.6
2019-04-20T08:36:32.969Z,5
2019-04-20T08:38:14.312Z,7.2
2019-04-20T08:40:25.239Z,5
2019-04-20T08:41:07.087Z,2.5
2019-04-20T08:43:10.505Z,5
2019-04-20T08:44:19.998Z,11.2
2019-04-20T08:46:20.249Z,6.1
2019-04-20T08:46:31.949Z,6.1
2019-04-20T08:47:18.076Z,5
2019-04-20T08:49:07.991Z,3.6
2019-04-20T08:53:03.289Z,6.1
2019-04-20T08:54:02.085Z,6.1
2019-04-20T08:54:57.572Z,6.1
2019-04-20T08:55:52.340Z,2.5
2019-04-20T08:56:28.985Z,8.6
2019-04-20T08:57:00.279Z,7.2
2019-04-20T08:57:07.193Z,9.7
2019-04-20T08:58:04.780Z,8.6
2019-04-20T08:59:04.300Z,8.6
2019-04-20T09:00:11.355Z,13.3
2019-04-20T09:01:37.135Z,6.1
2019-04-20T09:02:22.475Z,6.1
2019-04-20T09:04:06.440Z,9.7
2019-04-20T09:05:06.968Z,8.6
2019-04-20T09:07:25.071Z,3.6
2019-04-20T09:08:00.015Z,8.6
2019-04-20T09:09:52.370Z,9.7
2019-04-20T09:11:19.304Z,11.2
2019-04-20T09:13:07.987Z,11.2
2019-04-20T09:13:31.926Z,11.2
2019-04-20T09:14:00.120Z,5
2019-04-20T09:14:12.340Z,9.7
2019-04-20T09:15:04.142Z,7.2
2019-04-20T09:16:04.590Z,8.6
2019-04-20T09:17:59.372Z,7.2
2019-04-20T09:19:12.627Z,5
2019-04-20T09:20:10.242Z,3.6
2019-04-20T09:21:21.966Z,1.1
2019-04-20T09:22:23.292Z,6.1
2019-04-20T09:23:50.386Z,5
2019-04-20T09:25:07.006Z,8.6
2019-04-20T09:27:31.312Z,7.2
2019-04-20T09:27:45.574Z,3.6
2019-04-20T09:28:31.762Z,7.2
2019-04-20T09:29:32.743Z,5
2019-04-20T09:30:42.720Z,6.1
2019-04-20T09:31:42.995Z,8.6
2019-04-20T09:33:14.138Z,5
2019-04-20T09:34:01.355Z,6.1
2019-04-20T09:35:24.682Z,6.1
2019-04-20T09:35:53.028Z,3.6
2019-04-20T09:37:29.127Z,11.2
2019-04-20T09:38:04.759Z,8.6
2019-04-20T09:39:11.113Z,8.6
2019-04-20T09:39:44.808Z,8.6
2019-04-20T09:40:34.800Z,8.6
2019-04-20T09:42:00.302Z,6.1
2019-04-20T09:42:02.004Z,6.1
2019-04-20T09:42:03.918Z,6.1
2019-04-20T09:43:04.879Z,9.7
2019-04-20T09:44:04.921Z,6.1
2019-04-20T09:45:42.919Z,3.6
2019-04-20T09:46:12.051Z,8.6
2019-04-20T09:47:14.273Z,3.6
2019-04-20T09:48:56.036Z,3.6
2019-04-20T09:50:31.540Z,3.6
2019-04-20T09:51:57.216Z,3.6
2019-04-20T09:52:34.882Z,3.6
2019-04-20T09:53:38.881Z,2.5
2019-04-20T09:54:45.087Z,2.5
2019-04-20T09:55:52.807Z,5
2019-04-20T09:58:00.938Z,2.5
2019-04-20T09:58:33.656Z,6.1
2019-04-20T10:00:05.215Z,8.6
2019-04-20T10:00:57.842Z,2.5
2019-04-20T10:01:34.829Z,5
2019-04-20T10:02:06.535Z,6.1
2019-04-20T10:02:39.123Z,6.1
2019-04-20T10:03:04.498Z,6.1
2019-04-20T10:04:03.746Z,6.1
2019-04-20T10:05:02.890Z,6.1
2019-04-20T10:06:03.742Z,6.1
2019-04-20T10:07:35.401Z,6.1
2019-04-20T10:08:13.865Z,6.1
2019-04-20T10:09:05.407Z,5
2019-04-20T10:10:47.599Z,1.1
2019-04-20T10:11:03.912Z,5
2019-04-20T10:12:04.114Z,3.6
2019-04-20T10:13:09.257Z,2.5
2019-04-20T10:14:04.267Z,3.6
2019-04-20T10:15:31.306Z,3.6
2019-04-20T10:16:04.135Z,5
2019-04-20T10:17:03.800Z,3.6
2019-04-20T10:18:04.056Z,5
2019-04-20T10:19:05.174Z,3.6
2019-04-20T10:20:41.448Z,6.1
2019-04-20T10:21:03.231Z,8.6
2019-04-20T10:22:05.009Z,6.1
2019-04-20T10:23:04.908Z,5
2019-04-20T10:24:03.764Z,5
2019-04-20T10:25:04.907Z,3.6
2019-04-20T10:26:03.174Z,6.1
2019-04-20T10:27:03.384Z,11.2
2019-04-20T10:28:03.674Z,3.6
2019-04-20T10:29:03.814Z,2.5
2019-04-20T10:30:06.537Z,5
2019-04-20T10:31:04.655Z,5
2019-04-20T10:32:19.874Z,5
2019-04-20T10:33:03.972Z,5
2019-04-20T10:34:04.214Z,2.5
2019-04-20T10:35:04.819Z,2.5
2019-04-20T10:36:03.847Z,6.1
2019-04-20T10:37:04.181Z,6.1
2019-04-20T10:38:03.575Z,6.1
2019-04-20T10:39:04.728Z,6.1
2019-04-20T10:40:03.218Z,6.1
2019-04-20T10:41:57.436Z,7.2
2019-04-20T10:42:06.291Z,2.5
2019-04-20T10:43:06.427Z,6.1
2019-04-20T10:44:03.173Z,5
2019-04-20T10:45:06.186Z,7.2
2019-04-20T10:46:04.987Z,9.7
2019-04-20T10:47:03.312Z,6.1
2019-04-20T10:48:03.728Z,11.2
2019-04-20T10:49:11.527Z,7.2
2019-04-20T10:50:05.262Z,7.2
2019-04-20T10:51:03.507Z,6.1
2019-04-20T10:52:03.888Z,5
2019-04-20T10:53:03.968Z,3.6
2019-04-20T10:54:04.853Z,5
2019-04-20T10:55:04.048Z,7.2
2019-04-20T10:56:05.059Z,7.2
2019-04-20T10:57:03.794Z,5
2019-04-20T10:58:04.080Z,5
2019-04-20T10:59:03.871Z,3.6
2019-04-20T11:00:04.105Z,8.6
2019-04-20T11:01:04.246Z,6.1
2019-04-20T11:02:03.902Z,6.1
2019-04-20T11:03:04.110Z,7.2
2019-04-20T11:04:03.360Z,8.6
2019-04-20T11:05:04.739Z,2.5
2019-04-20T11:06:05.152Z,2.5
2019-04-20T11:07:04.942Z,2.5
2019-04-20T11:08:04.641Z,3.6
2019-04-20T11:09:02.834Z,7.2
2019-04-20T11:11:06.790Z,9.7
2019-04-20T11:11:33.989Z,2.5
2019-04-20T11:12:04.487Z,1.1
2019-04-20T11:13:03.605Z,8.6
2019-04-20T11:14:43.541Z,8.6
2019-04-20T11:15:03.575Z,2.5
2019-04-20T11:16:04.599Z,3.6
2019-04-20T11:17:04.706Z,6.1
2019-04-20T11:18:04.012Z,3.6
2019-04-20T11:19:03.609Z,3.6
2019-04-20T11:20:03.683Z,5
2019-04-20T11:21:03.919Z,6.1
2019-04-20T11:22:04.530Z,2.5
2019-04-20T11:23:04.650Z,3.6
2019-04-20T11:24:04.669Z,6.1
2019-04-20T11:25:04.607Z,5
2019-04-20T11:26:04.649Z,6.1
2019-04-20T11:27:02.834Z,7.2
2019-04-20T11:28:04.315Z,6.1
2019-04-20T11:29:04.543Z,6.1
2019-04-20T11:30:04.686Z,6.1
2019-04-20T11:31:04.360Z,3.6
2019-04-20T11:32:05.456Z,2.5
2019-04-20T11:33:04.688Z,3.6
2019-04-20T11:34:04.417Z,3.6
2019-04-20T11:35:43.334Z,8.6
2019-04-20T11:36:03.627Z,6.1
2019-04-20T11:37:03.702Z,7.2
2019-04-20T11:38:05.247Z,7.2
2019-04-20T11:39:05.194Z,6.1
2019-04-20T11:40:06.519Z,7.2
2019-04-20T11:41:37.008Z,5
2019-04-20T11:42:03.957Z,8.6
2019-04-20T11:43:04.264Z,3.6
2019-04-20T11:44:03.621Z,2.5
2019-04-20T11:45:04.933Z,0
2019-04-20T11:46:04.875Z,0
2019-04-20T11:47:03.724Z,1.1
2019-04-20T11:48:03.753Z,3.6
2019-04-20T11:49:03.954Z,6.1
2019-04-20T11:50:04.095Z,3.6
2019-04-20T11:51:05.592Z,6.1
2019-04-20T11:52:03.865Z,5
2019-04-20T11:53:03.880Z,5
2019-04-20T11:54:04.585Z,7.2
2019-04-20T11:55:04.698Z,3.6
2019-04-20T11:56:42.101Z,3.6
2019-04-20T11:57:04.056Z,5
2019-04-20T11:58:04.086Z,1.1
2019-04-20T11:59:03.359Z,3.6
2019-04-20T12:00:05.651Z,2.5
2019-04-20T12:01:41.182Z,5
2019-04-20T12:02:38.579Z,5
2019-04-20T12:05:27.722Z,5
2019-04-20T12:05:55.002Z,5
2019-04-20T12:06:08.988Z,5
2019-04-20T12:07:04.859Z,5
2019-04-20T12:08:05.166Z,5
2019-04-20T12:09:03.421Z,2.5
2019-04-20T12:10:27.895Z,1.1
2019-04-20T12:12:32.607Z,6.1
2019-04-20T12:12:54.136Z,3.6
2019-04-20T12:13:04.166Z,5
2019-04-20T12:14:03.253Z,3.6
2019-04-20T12:15:04.748Z,1.1
2019-04-20T12:16:03.836Z,6.1
2019-04-20T12:17:04.095Z,2.5
2019-04-20T12:18:03.056Z,2.5
2019-04-20T12:19:04.664Z,6.1
2019-04-20T12:20:04.245Z,5
2019-04-20T12:21:03.326Z,2.5
2019-04-20T12:22:03.864Z,3.6
2019-04-20T12:23:04.622Z,3.6
2019-04-20T12:24:04.743Z,7.2
2019-04-20T12:25:03.724Z,6.1
2019-04-20T12:26:05.089Z,5
2019-04-20T12:27:05.148Z,5
2019-04-20T12:28:05.655Z,7.2
2019-04-20T12:29:03.861Z,8.6
2019-04-20T12:30:04.050Z,7.2
2019-04-20T12:31:27.828Z,5
2019-04-20T12:32:10.928Z,3.6
2019-04-20T12:33:07.662Z,2.5
2019-04-20T12:34:04.804Z,7.2
2019-04-20T12:35:04.637Z,3.6
2019-04-20T12:36:03.452Z,3.6
2019-04-20T12:37:03.412Z,6.1
2019-04-20T12:38:03.534Z,2.5
2019-04-20T12:39:03.718Z,2.5
2019-04-20T12:40:03.492Z,1.1
2019-04-20T12:41:16.223Z,3.6
2019-04-20T12:42:13.202Z,11.2
2019-04-20T12:43:05.046Z,7.2
2019-04-20T12:44:04.215Z,7.2
2019-04-20T12:45:04.221Z,8.6
2019-04-20T12:46:03.463Z,7.2
2019-04-20T12:47:03.979Z,6.1
2019-04-20T12:48:04.261Z,5
2019-04-20T12:49:03.314Z,5
2019-04-20T12:50:03.808Z,5
2019-04-20T12:51:04.195Z,3.6
2019-04-20T12:52:08.786Z,7.2
2019-04-20T12:53:04.749Z,7.2
2019-04-20T12:54:02.925Z,6.1
2019-04-20T12:55:06.719Z,5
2019-04-20T12:56:04.024Z,5
2019-04-20T12:57:04.927Z,3.6
2019-04-20T12:58:05.156Z,3.6
2019-04-20T12:59:03.766Z,5
2019-04-20T13:00:03.911Z,5
2019-04-20T13:01:04.819Z,6.1
2019-04-20T13:02:05.320Z,7.2
2019-04-20T13:03:05.540Z,2.5
2019-04-20T13:04:09.778Z,5
2019-04-20T13:05:03.933Z,8.6
2019-04-20T13:06:04.109Z,3.6
2019-04-20T13:07:04.113Z,3.6
2019-04-20T13:08:09.492Z,2.5
2019-04-20T13:09:06.025Z,6.1
2019-04-20T13:10:07.954Z,7.2
2019-04-20T13:11:04.898Z,6.1
2019-04-20T13:12:15.759Z,5
2019-04-20T13:13:04.893Z,5
2019-04-20T13:14:04.496Z,6.1
2019-04-20T13:15:04.759Z,7.2
2019-04-20T13:16:04.835Z,5
2019-04-20T13:17:05.009Z,5
2019-04-20T13:18:03.613Z,2.5
2019-04-20T13:19:03.969Z,5
2019-04-20T13:20:04.057Z,5
2019-04-20T13:21:07.125Z,2.5
2019-04-20T13:22:05.441Z,5
2019-04-20T13:23:11.068Z,0
2019-04-20T13:24:07.106Z,1.1
2019-04-20T13:25:03.539Z,3.6
2019-04-20T13:26:15.766Z,9.7
2019-04-20T13:27:04.941Z,5
2019-04-20T13:28:03.665Z,2.5
2019-04-20T13:29:05.052Z,2.5
2019-04-20T13:30:05.445Z,2.5
2019-04-20T13:31:04.303Z,3.6
2019-04-20T13:32:03.156Z,1.1
2019-04-20T13:33:06.081Z,2.5
2019-04-20T13:34:05.603Z,1.1
2019-04-20T13:35:04.846Z,7.2
2019-04-20T13:36:04.821Z,8.6
2019-04-20T13:37:04.570Z,7.2
2019-04-20T13:38:04.878Z,3.6
2019-04-20T13:39:04.184Z,5
2019-04-20T13:40:05.213Z,6.1
2019-04-20T13:41:04.418Z,5
2019-04-20T13:42:33.557Z,5
2019-04-20T13:43:03.855Z,1.1
2019-04-20T13:44:08.551Z,3.6
2019-04-20T13:45:04.698Z,3.6
2019-04-20T13:46:05.236Z,2.5
2019-04-20T13:47:05.400Z,7.2
2019-04-20T13:48:04.771Z,7.2
2019-04-20T13:49:05.225Z,3.6
2019-04-20T13:50:03.660Z,6.1
2019-04-20T13:51:05.752Z,7.2
2019-04-20T13:52:04.920Z,5
2019-04-20T13:53:05.592Z,2.5
2019-04-20T13:54:29.891Z,1.1
2019-04-20T13:55:03.773Z,6.1
2019-04-20T13:56:04.547Z,8.6
2019-04-20T13:57:04.337Z,9.7
2019-04-20T13:58:05.253Z,8.6
2019-04-20T13:59:05.984Z,7.2
2019-04-20T14:00:04.482Z,8.6
2019-04-20T14:01:06.165Z,5
2019-04-20T14:02:05.041Z,5
2019-04-20T14:03:03.037Z,5
2019-04-20T14:04:05.212Z,5
2019-04-20T14:05:05.031Z,5
2019-04-20T14:06:04.977Z,5
2019-04-20T14:07:04.160Z,5
2019-04-20T14:08:03.434Z,5
2019-04-20T14:09:05.639Z,8.6
2019-04-20T14:10:04.036Z,7.2
2019-04-20T14:11:05.515Z,3.6
2019-04-20T14:13:00.466Z,3.6
2019-04-20T14:13:35.160Z,2.5
2019-04-20T14:14:08.693Z,5
2019-04-20T14:15:05.337Z,6.1
2019-04-20T14:16:05.362Z,5
2019-04-20T14:17:03.773Z,6.1
2019-04-20T14:18:05.183Z,6.1
2019-04-20T14:19:05.427Z,3.6
2019-04-20T14:20:26.035Z,3.6
2019-04-20T14:21:03.882Z,2.5
2019-04-20T14:22:04.273Z,2.5
2019-04-20T14:23:03.496Z,6.1
2019-04-20T14:24:04.662Z,3.6
2019-04-20T14:25:05.324Z,3.6
2019-04-20T14:26:05.249Z,5
2019-04-20T14:27:03.723Z,2.5
2019-04-20T14:28:03.393Z,1.1
2019-04-20T14:29:05.013Z,5
2019-04-20T14:30:03.800Z,3.6
2019-04-20T14:31:04.090Z,0
2019-04-20T14:32:12.290Z,1.1
2019-04-20T14:33:05.453Z,5
2019-04-20T14:34:05.106Z,6.1
2019-04-20T14:35:05.073Z,6.1
2019-04-20T14:36:03.639Z,6.1
2019-04-20T14:37:03.160Z,2.5
2019-04-20T14:38:04.188Z,8.6
2019-04-20T14:39:04.567Z,7.2
2019-04-20T14:40:04.545Z,6.1
2019-04-20T14:41:04.619Z,8.6
2019-04-20T14:42:04.233Z,6.1
2019-04-20T14:43:03.789Z,2.5
2019-04-20T14:44:03.962Z,5
2019-04-20T14:45:04.857Z,8.6
2019-04-20T14:46:04.911Z,7.2
2019-04-20T14:47:03.989Z,1.1
2019-04-20T14:48:04.059Z,2.5
2019-04-20T14:49:03.222Z,2.5
2019-04-20T14:50:03.736Z,3.6
2019-04-20T14:51:03.864Z,6.1
2019-04-20T14:52:08.318Z,5
2019-04-20T14:53:03.400Z,5
2019-04-20T14:54:03.645Z,5
2019-04-20T14:55:04.074Z,6.1
2019-04-20T14:56:03.139Z,5
2019-04-20T14:57:03.772Z,2.5
2019-04-20T14:58:03.978Z,0
2019-04-20T14:59:03.616Z,2.5
2019-04-20T15:00:05.655Z,2.5
2019-04-20T15:01:05.093Z,1.1
2019-04-20T15:02:03.106Z,2.5
2019-04-20T15:03:04.287Z,5
2019-04-20T15:04:28.280Z,6.1
2019-04-20T15:05:03.663Z,8.6
2019-04-20T15:06:03.772Z,9.7
2019-04-20T15:07:04.930Z,5
2019-04-20T15:08:04.465Z,6.1
2019-04-20T15:09:03.872Z,2.5
2019-04-20T15:10:05.103Z,2.5
2019-04-20T15:11:05.392Z,3.6
2019-04-20T15:12:04.941Z,3.6
2019-04-20T15:13:13.079Z,3.6
2019-04-20T15:14:05.027Z,3.6
2019-04-20T15:15:05.110Z,3.6
2019-04-20T15:16:04.996Z,3.6
2019-04-20T15:17:05.066Z,2.5
2019-04-20T15:18:04.044Z,2.5
2019-04-20T15:19:03.436Z,2.5
2019-04-20T15:20:03.873Z,2.5
2019-04-20T15:21:04.092Z,3.6
2019-04-20T15:22:03.622Z,3.6
2019-04-20T15:23:03.797Z,3.6
2019-04-20T15:24:04.052Z,2.5
2019-04-20T15:25:03.681Z,2.5
2019-04-20T15:26:04.708Z,3.6
2019-04-20T15:27:04.920Z,3.6
2019-04-20T15:28:03.138Z,5
2019-04-20T15:29:04.731Z,2.5
2019-04-20T15:30:04.828Z,2.5
2019-04-20T15:31:03.320Z,2.5
2019-04-20T15:32:04.503Z,5
2019-04-20T15:33:03.446Z,3.6
2019-04-20T15:34:04.887Z,5
2019-04-20T15:35:04.982Z,7.2
2019-04-20T15:36:04.576Z,5
2019-04-20T15:37:05.862Z,2.5
2019-04-20T15:38:05.415Z,2.5
2019-04-20T15:39:03.368Z,1.1
2019-04-20T15:40:03.793Z,3.6